Time;durP1;ratioP1;P1;durP2;ratioP2;P2;SDS_P1;SDS_P2;PMS_P1;PMS_P2;Temp;Humidity;BMP_temperature;BMP_pressure;BME280_temperature;BME280_humidity;BME280_pressure;Samples;Min_cycle;Max_cycle;Signal;HPM_P1;HPM_P2
2022/06/14 00:01:34;;;;;;;5.10;2.40;;;;;;;;;;4961899;28;19972;-74
2022/06/14 00:04:18;;;;;;;8.18;2.60;;;;;;;;;;4964509;28;20061;-71
2022/06/14 00:07:02;;;;;;;5.97;2.20;;;;;;;;;;4964611;28;20041;-71
2022/06/14 00:09:28;;;;;;;7.70;2.42;;;;;;;;;;4962854;28;20043;-72
2022/06/14 00:11:53;;;;;;;5.63;2.35;;;;;;;;;;4966304;28;20459;-70
2022/06/14 00:14:19;;;;;;;6.68;2.28;;;;;;;;;;4961533;28;20507;-71
2022/06/14 00:16:45;;;;;;;7.18;2.60;;;;;;;;;;4961720;28;20074;-70
2022/06/14 00:19:11;;;;;;;7.90;2.70;;;;;;;;;;4961185;28;20491;-73
2022/06/14 00:21:37;;;;;;;5.25;2.30;;;;;;;;;;4961449;28;20491;-71
2022/06/14 00:24:05;;;;;;;9.90;2.65;;;;;;;;;;4960433;28;20167;-72
2022/06/14 00:26:31;;;;;;;4.95;2.20;;;;;;;;;;4965586;28;20144;-70
2022/06/14 00:28:57;;;;;;;7.45;2.20;;;;;;;;;;4967144;28;20531;-72
2022/06/14 00:31:26;;;;;;;5.43;2.25;;;;;;;;;;4964397;28;20187;-73
2022/06/14 00:33:52;;;;;;;10.35;2.97;;;;;;;;;;4962143;28;20050;-70
2022/06/14 00:36:29;;;;;;;8.85;2.30;;;;;;;;;;4964207;28;20051;-71
2022/06/14 00:38:57;;;;;;;7.95;2.58;;;;;;;;;;4965849;28;20062;-70
2022/06/14 00:41:49;;;;;;;3.78;2.38;;;;;;;;;;4963092;28;20051;-71
2022/06/14 00:44:22;;;;;;;7.90;2.55;;;;;;;;;;4965466;28;20050;-70
2022/06/14 00:47:11;;;;;;;6.13;2.45;;;;;;;;;;4960379;28;20061;-71
2022/06/14 00:49:59;;;;;;;6.18;2.42;;;;;;;;;;4966068;28;20047;-70
2022/06/14 00:52:42;;;;;;;7.45;2.40;;;;;;;;;;4963071;28;20093;-70
2022/06/14 00:55:43;;;;;;;5.07;2.58;;;;;;;;;;4965459;28;20054;-70
2022/06/14 00:58:24;;;;;;;8.18;2.50;;;;;;;;;;4932262;28;20057;-71
2022/06/14 01:01:02;;;;;;;6.20;2.30;;;;;;;;;;4963530;28;20069;-70
2022/06/14 01:03:41;;;;;;;5.65;2.40;;;;;;;;;;4955508;28;20046;-70
2022/06/14 01:06:24;;;;;;;5.95;2.38;;;;;;;;;;4965463;28;20061;-70
2022/06/14 01:08:53;;;;;;;5.85;2.30;;;;;;;;;;4967445;28;20047;-71
2022/06/14 01:11:30;;;;;;;8.77;2.58;;;;;;;;;;4969344;28;20510;-72
2022/06/14 01:13:56;;;;;;;6.25;2.40;;;;;;;;;;4958628;28;20079;-73
2022/06/14 01:16:22;;;;;;;5.20;2.13;;;;;;;;;;4966720;28;20045;-70
2022/06/14 01:18:48;;;;;;;7.72;3.00;;;;;;;;;;4968748;28;20412;-69
2022/06/14 01:21:15;;;;;;;7.32;2.42;;;;;;;;;;4967711;28;20039;-70
2022/06/14 01:23:42;;;;;;;7.35;2.53;;;;;;;;;;4965261;28;20066;-71
2022/06/14 01:26:22;;;;;;;8.63;2.55;;;;;;;;;;4981071;28;20106;-70
2022/06/14 01:28:57;;;;;;;6.22;2.60;;;;;;;;;;4968135;28;20047;-69
2022/06/14 01:31:25;;;;;;;6.75;2.60;;;;;;;;;;4966617;28;20102;-69
2022/06/14 01:33:56;;;;;;;4.82;2.58;;;;;;;;;;4962548;28;20445;-70
2022/06/14 01:36:33;;;;;;;5.43;2.50;;;;;;;;;;4966279;28;20174;-70
2022/06/14 01:39:03;;;;;;;6.78;2.58;;;;;;;;;;4968088;28;20047;-69
2022/06/14 01:42:08;;;;;;;7.50;2.60;;;;;;;;;;4963805;28;20409;-71
2022/06/14 01:45:22;;;;;;;7.00;2.85;;;;;;;;;;4962627;28;20039;-71
2022/06/14 01:47:53;;;;;;;6.65;2.53;;;;;;;;;;4965150;28;20097;-70
2022/06/14 01:53:47;;;;;;;5.97;2.90;;;;;;;;;;4960535;28;20101;-71
2022/06/14 01:56:24;;;;;;;5.47;2.88;;;;;;;;;;4969300;28;20859;-70
2022/06/14 01:59:27;;;;;;;6.55;2.50;;;;;;;;;;4965991;28;20039;-70
2022/06/14 02:02:08;;;;;;;4.38;2.30;;;;;;;;;;4961719;28;20089;-70
2022/06/14 02:04:38;;;;;;;6.88;2.60;;;;;;;;;;4962243;28;20126;-70
2022/06/14 02:07:10;;;;;;;6.70;2.70;;;;;;;;;;4963650;28;20050;-70
2022/06/14 02:09:57;;;;;;;4.85;2.47;;;;;;;;;;4968825;28;20131;-71
2022/06/14 02:12:39;;;;;;;8.88;2.70;;;;;;;;;;4969303;28;20566;-71
2022/06/14 02:15:38;;;;;;;8.57;2.70;;;;;;;;;;4958336;28;20768;-71
2022/06/14 02:18:39;;;;;;;7.40;2.95;;;;;;;;;;4967669;28;20053;-70
2022/06/14 02:21:26;;;;;;;7.63;2.83;;;;;;;;;;4965855;28;20053;-70
2022/06/14 02:24:06;;;;;;;6.18;2.78;;;;;;;;;;4966773;28;20074;-72
2022/06/14 02:26:45;;;;;;;7.13;2.97;;;;;;;;;;4966799;28;20178;-70
2022/06/14 02:29:55;;;;;;;7.60;3.35;;;;;;;;;;4960956;28;20158;-71
2022/06/14 02:32:25;;;;;;;6.43;3.13;;;;;;;;;;4923533;29;20120;-71
2022/06/14 02:35:14;;;;;;;11.48;3.95;;;;;;;;;;4920733;29;20139;-70
2022/06/14 02:37:51;;;;;;;11.80;4.47;;;;;;;;;;4909330;29;20039;-70
2022/06/14 02:40:20;;;;;;;8.85;4.20;;;;;;;;;;4925042;29;20086;-69
2022/06/14 02:43:14;;;;;;;8.35;4.60;;;;;;;;;;4919453;29;20059;-69
2022/06/14 02:45:48;;;;;;;16.05;4.30;;;;;;;;;;4915895;29;20450;-70
2022/06/14 02:48:20;;;;;;;8.85;3.75;;;;;;;;;;4924580;29;20056;-70
2022/06/14 02:51:42;;;;;;;12.38;4.53;;;;;;;;;;4919264;29;20125;-70
2022/06/14 02:54:18;;;;;;;10.27;4.28;;;;;;;;;;4914220;29;20052;-70
2022/06/14 02:57:15;;;;;;;8.98;4.15;;;;;;;;;;4924693;29;20047;-72
2022/06/14 03:00:07;;;;;;;10.32;4.30;;;;;;;;;;4920671;29;20063;-70
2022/06/14 03:02:59;;;;;;;11.35;4.20;;;;;;;;;;4939747;28;20093;-69
2022/06/14 03:05:55;;;;;;;12.27;4.57;;;;;;;;;;4959682;28;20520;-70
2022/06/14 03:08:50;;;;;;;10.98;4.55;;;;;;;;;;4965940;28;20093;-70
2022/06/14 03:11:44;;;;;;;10.32;4.60;;;;;;;;;;4961498;28;20225;-70
2022/06/14 03:14:44;;;;;;;7.32;3.90;;;;;;;;;;4966610;28;20053;-69
2022/06/14 03:17:49;;;;;;;11.82;4.38;;;;;;;;;;4962197;28;20134;-72
2022/06/14 03:20:38;;;;;;;10.23;4.50;;;;;;;;;;4967853;28;20061;-69
2022/06/14 03:23:13;;;;;;;12.63;4.80;;;;;;;;;;4965293;28;20193;-70
2022/06/14 03:25:47;;;;;;;10.18;4.20;;;;;;;;;;4967163;28;20542;-71
2022/06/14 03:28:19;;;;;;;12.20;4.10;;;;;;;;;;4957291;28;20476;-69
2022/06/14 03:30:49;;;;;;;11.80;5.30;;;;;;;;;;4960710;28;20040;-71
2022/06/14 03:33:44;;;;;;;14.27;4.82;;;;;;;;;;4964062;28;20130;-69
2022/06/14 03:36:10;;;;;;;13.70;4.03;;;;;;;;;;4965471;28;20457;-70
2022/06/14 03:38:42;;;;;;;13.63;4.10;;;;;;;;;;4964978;28;20050;-69
2022/06/14 03:41:12;;;;;;;13.40;4.07;;;;;;;;;;4966382;28;20046;-70
2022/06/14 03:43:39;;;;;;;14.60;4.25;;;;;;;;;;4962315;28;20112;-71
2022/06/14 03:46:13;;;;;;;11.75;4.40;;;;;;;;;;4962082;28;20050;-69
2022/06/14 03:48:44;;;;;;;12.23;4.05;;;;;;;;;;4960786;28;20134;-70
2022/06/14 03:51:33;;;;;;;10.82;4.43;;;;;;;;;;4966464;28;20055;-71
2022/06/14 03:54:09;;;;;;;10.52;4.10;;;;;;;;;;4970611;28;20046;-69
2022/06/14 03:57:15;;;;;;;12.63;4.03;;;;;;;;;;4961597;28;20079;-69
2022/06/14 04:00:07;;;;;;;11.27;4.30;;;;;;;;;;4965468;28;20054;-70
2022/06/14 04:02:54;;;;;;;10.43;3.60;;;;;;;;;;4961517;28;20484;-69
2022/06/14 04:05:20;;;;;;;14.52;4.20;;;;;;;;;;4964915;28;20051;-71
2022/06/14 04:07:57;;;;;;;10.55;3.80;;;;;;;;;;4963316;28;20381;-71
2022/06/14 04:10:47;;;;;;;11.80;3.72;;;;;;;;;;4959228;28;20396;-70
2022/06/14 04:13:13;;;;;;;10.68;3.90;;;;;;;;;;4957228;28;20043;-69
2022/06/14 04:16:22;;;;;;;10.85;4.18;;;;;;;;;;4965923;28;20137;-70
2022/06/14 04:19:10;;;;;;;15.05;3.42;;;;;;;;;;4959016;28;20180;-69
2022/06/14 04:21:45;;;;;;;12.10;4.13;;;;;;;;;;4957468;28;20527;-70
2022/06/14 04:24:29;;;;;;;8.48;3.38;;;;;;;;;;4962109;28;20051;-69
2022/06/14 04:26:58;;;;;;;;;;;;;;;;;;4957196;28;20412;-68
2022/06/14 04:29:35;;;;;;;8.55;3.58;;;;;;;;;;4965887;28;20111;-70
2022/06/14 04:32:08;;;;;;;9.82;3.75;;;;;;;;;;4962449;28;20145;-70
2022/06/14 04:34:41;;;;;;;9.52;4.18;;;;;;;;;;4959908;28;20066;-69
2022/06/14 04:37:09;;;;;;;10.33;3.90;;;;;;;;;;4963060;28;20043;-69
2022/06/14 04:39:44;;;;;;;11.05;4.00;;;;;;;;;;4953331;28;20287;-68
2022/06/14 04:42:17;;;;;;;10.13;3.30;;;;;;;;;;4954532;28;20078;-70
2022/06/14 04:44:46;;;;;;;11.55;3.95;;;;;;;;;;4954846;28;20051;-69
2022/06/14 04:47:29;;;;;;;12.85;4.80;;;;;;;;;;4956938;28;20117;-68
2022/06/14 04:50:04;;;;;;;9.07;3.75;;;;;;;;;;4959051;28;20066;-69
2022/06/14 04:52:39;;;;;;;12.38;4.05;;;;;;;;;;4957423;28;20039;-70
2022/06/14 04:55:09;;;;;;;;;;;;;;;;;;4956560;28;20046;-71
2022/06/14 04:57:52;;;;;;;11.90;4.00;;;;;;;;;;4958003;28;19955;-71
2022/06/14 05:00:32;;;;;;;12.95;3.88;;;;;;;;;;4957633;28;20126;-70
2022/06/14 05:03:21;;;;;;;15.95;4.55;;;;;;;;;;4953423;28;20058;-69
2022/06/14 05:05:57;;;;;;;13.40;4.07;;;;;;;;;;4960447;28;20187;-70
2022/06/14 05:08:45;;;;;;;13.10;4.32;;;;;;;;;;4957936;28;20385;-69
2022/06/14 05:11:34;;;;;;;10.10;4.72;;;;;;;;;;4954145;28;20074;-68
2022/06/14 05:14:35;;;;;;;16.35;5.00;;;;;;;;;;4959117;28;20054;-71
2022/06/14 05:17:11;;;;;;;14.63;4.20;;;;;;;;;;4958389;28;20085;-69
2022/06/14 05:19:51;;;;;;;18.08;5.18;;;;;;;;;;4959984;28;20112;-71
2022/06/14 05:22:41;;;;;;;10.60;4.25;;;;;;;;;;4957658;28;20078;-69
2022/06/14 05:25:08;;;;;;;10.27;4.38;;;;;;;;;;4959724;28;20522;-70
2022/06/14 05:28:04;;;;;;;15.00;4.40;;;;;;;;;;4957826;28;20646;-69
2022/06/14 05:30:40;;;;;;;12.45;4.30;;;;;;;;;;4959467;28;20413;-70
2022/06/14 05:33:27;;;;;;;15.23;4.40;;;;;;;;;;4956849;28;20082;-70
2022/06/14 05:35:59;;;;;;;9.52;4.20;;;;;;;;;;4960606;28;20158;-69
2022/06/14 05:38:53;;;;;;;13.55;4.30;;;;;;;;;;4957662;28;20043;-72
2022/06/14 05:41:35;;;;;;;;;;;;;;;;;;4952086;28;20081;-68
2022/06/14 05:44:09;;;;;;;16.88;4.63;;;;;;;;;;4963671;28;19930;-70
2022/06/14 05:46:41;;;;;;;11.60;4.68;;;;;;;;;;4962544;28;20054;-71
2022/06/14 05:49:13;;;;;;;7.68;4.22;;;;;;;;;;4963035;28;20113;-70
2022/06/14 05:51:52;;;;;;;10.13;4.03;;;;;;;;;;4961124;28;20425;-70
2022/06/14 05:54:42;;;;;;;12.23;4.80;;;;;;;;;;4961728;28;20361;-69
2022/06/14 05:57:21;;;;;;;11.57;4.90;;;;;;;;;;4960865;28;20432;-70
2022/06/14 06:00:05;;;;;;;15.55;5.03;;;;;;;;;;4962429;28;20089;-69
2022/06/14 06:02:45;;;;;;;13.63;5.15;;;;;;;;;;4960504;28;20046;-69
2022/06/14 06:05:13;;;;;;;11.02;4.53;;;;;;;;;;4962021;28;20382;-70
2022/06/14 06:07:47;;;;;;;14.70;4.40;;;;;;;;;;4961424;28;20705;-70
2022/06/14 06:10:36;;;;;;;10.55;4.90;;;;;;;;;;4963188;28;20567;-72
2022/06/14 06:13:19;;;;;;;14.52;5.63;;;;;;;;;;4959518;28;20047;-70
2022/06/14 06:15:54;;;;;;;18.00;5.17;;;;;;;;;;4962929;28;20047;-71
2022/06/14 06:18:29;;;;;;;20.73;5.70;;;;;;;;;;4963439;28;20304;-70
2022/06/14 06:21:13;;;;;;;13.98;4.53;;;;;;;;;;4957129;28;20431;-70
2022/06/14 06:23:48;;;;;;;16.27;5.65;;;;;;;;;;4960601;28;20051;-70
2022/06/14 06:26:16;;;;;;;21.67;5.97;;;;;;;;;;4959511;28;20177;-69
2022/06/14 06:28:48;;;;;;;16.60;5.78;;;;;;;;;;4961205;28;20059;-69
2022/06/14 06:31:21;;;;;;;12.82;5.18;;;;;;;;;;4958469;28;20054;-70
2022/06/14 06:33:50;;;;;;;19.05;5.25;;;;;;;;;;4961982;28;20051;-68
2022/06/14 06:36:36;;;;;;;18.98;5.63;;;;;;;;;;4962360;28;20129;-66
2022/06/14 06:39:24;;;;;;;11.90;4.80;;;;;;;;;;4954070;28;20335;-71
2022/06/14 06:41:55;;;;;;;13.77;5.07;;;;;;;;;;4959923;28;20047;-69
2022/06/14 06:44:33;;;;;;;13.65;4.80;;;;;;;;;;4962665;28;20504;-69
2022/06/14 06:47:06;;;;;;;13.57;5.00;;;;;;;;;;4964327;28;20058;-68
2022/06/14 06:50:28;;;;;;;13.05;4.60;;;;;;;;;;4962285;28;20543;-69
2022/06/14 06:52:54;;;;;;;15.27;5.05;;;;;;;;;;4902543;29;20063;-72
2022/06/14 06:55:36;;;;;;;18.40;4.53;;;;;;;;;;4902857;29;20044;-69
2022/06/14 06:58:06;;;;;;;15.43;4.50;;;;;;;;;;4904398;29;20159;-70
2022/06/14 07:00:33;;;;;;;11.85;4.53;;;;;;;;;;4905613;29;20115;-82
2022/06/14 07:03:11;;;;;;;16.92;5.30;;;;;;;;;;4908819;29;20588;-69
2022/06/14 07:05:37;;;;;;;15.52;5.10;;;;;;;;;;4892427;29;20052;-71
2022/06/14 07:08:16;;;;;;;9.25;4.53;;;;;;;;;;4906679;29;20078;-69
2022/06/14 07:10:50;;;;;;;12.27;4.97;;;;;;;;;;4904477;29;20048;-71
2022/06/14 07:13:24;;;;;;;13.95;5.00;;;;;;;;;;4906274;29;20325;-69
2022/06/14 07:15:55;;;;;;;11.27;4.55;;;;;;;;;;4905455;29;20044;-70
2022/06/14 07:18:40;;;;;;;15.27;4.93;;;;;;;;;;4907212;29;20052;-70
2022/06/14 07:21:11;;;;;;;12.50;4.60;;;;;;;;;;4906622;29;20125;-70
2022/06/14 07:24:04;;;;;;;15.82;5.07;;;;;;;;;;4907712;29;20518;-70
2022/06/14 07:26:54;;;;;;;15.25;4.93;;;;;;;;;;4905879;29;20062;-72
2022/06/14 07:29:31;;;;;;;12.60;4.32;;;;;;;;;;4956896;28;20296;-68
2022/06/14 07:32:18;;;;;;;13.43;4.72;;;;;;;;;;4961416;28;20054;-71
2022/06/14 07:34:44;;;;;;;20.23;4.72;;;;;;;;;;4961113;28;20536;-67
2022/06/14 07:37:36;;;;;;;14.23;4.10;;;;;;;;;;4953136;28;20039;-70
2022/06/14 07:40:20;;;;;;;13.63;4.35;;;;;;;;;;4931427;28;20060;-70
2022/06/14 07:42:56;;;;;;;13.27;3.97;;;;;;;;;;4959024;28;20061;-69
2022/06/14 07:45:28;;;;;;;13.07;5.82;;;;;;;;;;4964183;28;20531;-69
2022/06/14 07:48:00;;;;;;;11.18;4.45;;;;;;;;;;4966973;28;20059;-70
2022/06/14 07:50:38;;;;;;;10.43;4.55;;;;;;;;;;4968555;28;20049;-68
2022/06/14 07:53:16;;;;;;;10.60;3.92;;;;;;;;;;4959587;28;20156;-70
2022/06/14 07:55:58;;;;;;;18.17;4.38;;;;;;;;;;4965947;28;20154;-69
2022/06/14 07:58:37;;;;;;;14.48;4.30;;;;;;;;;;4965283;28;20051;-69
2022/06/14 08:01:13;;;;;;;11.07;4.00;;;;;;;;;;4965887;28;20046;-69
2022/06/14 08:03:54;;;;;;;9.70;3.50;;;;;;;;;;4965511;28;20078;-69
2022/06/14 08:06:33;;;;;;;20.02;4.97;;;;;;;;;;4962998;28;20043;-68
2022/06/14 08:09:24;;;;;;;11.20;3.42;;;;;;;;;;4966000;28;20053;-71
2022/06/14 08:11:56;;;;;;;12.93;3.60;;;;;;;;;;4960854;28;20073;-71
2022/06/14 08:14:43;;;;;;;11.57;3.60;;;;;;;;;;4965721;28;20146;-70
2022/06/14 08:17:14;;;;;;;14.50;3.60;;;;;;;;;;4966543;28;20478;-70
2022/06/14 08:19:48;;;;;;;11.40;3.80;;;;;;;;;;4965509;28;20348;-70
2022/06/14 08:22:24;;;;;;;13.05;4.10;;;;;;;;;;4965168;28;20062;-70
2022/06/14 08:24:55;;;;;;;8.32;3.80;;;;;;;;;;4964783;28;20050;-70
2022/06/14 08:27:27;;;;;;;13.75;4.00;;;;;;;;;;4966034;28;20051;-69
2022/06/14 08:30:00;;;;;;;12.38;4.00;;;;;;;;;;4966427;28;20067;-69
2022/06/14 08:32:42;;;;;;;10.30;4.20;;;;;;;;;;4963844;28;20113;-69
2022/06/14 08:35:17;;;;;;;12.55;3.60;;;;;;;;;;4959750;28;20051;-69
2022/06/14 08:37:53;;;;;;;9.82;3.72;;;;;;;;;;4957547;28;20385;-69
2022/06/14 08:40:24;;;;;;;8.90;3.53;;;;;;;;;;4959251;28;20562;-71
2022/06/14 08:43:11;;;;;;;10.02;3.83;;;;;;;;;;4964478;28;20058;-75
2022/06/14 08:45:42;;;;;;;8.70;3.30;;;;;;;;;;4966201;28;20051;-70
2022/06/14 08:48:49;;;;;;;10.85;3.53;;;;;;;;;;4958758;28;20117;-69
2022/06/14 08:51:48;;;;;;;8.70;3.30;;;;;;;;;;4948152;28;20429;-69
2022/06/14 08:54:44;;;;;;;10.57;3.58;;;;;;;;;;4950349;28;20047;-70
2022/06/14 08:57:23;;;;;;;10.57;3.47;;;;;;;;;;4965036;28;20043;-69
2022/06/14 09:00:00;;;;;;;11.80;3.58;;;;;;;;;;4966636;28;20046;-71
2022/06/14 09:03:04;;;;;;;10.35;4.13;;;;;;;;;;4958437;28;20528;-70
2022/06/14 09:05:50;;;;;;;12.93;4.03;;;;;;;;;;4960451;28;20055;-71
2022/06/14 09:08:22;;;;;;;10.23;4.43;;;;;;;;;;4964892;28;20594;-71
2022/06/14 09:11:13;;;;;;;10.30;4.57;;;;;;;;;;4962949;28;20496;-70
2022/06/14 09:13:51;;;;;;;12.27;4.40;;;;;;;;;;4964042;28;20059;-72
2022/06/14 09:17:01;;;;;;;18.40;6.00;;;;;;;;;;4963643;28;20516;-71
2022/06/14 09:19:49;;;;;;;17.05;5.25;;;;;;;;;;4945917;28;20047;-73
2022/06/14 09:22:17;;;;;;;14.35;4.80;;;;;;;;;;4965104;28;20512;-70
2022/06/14 09:25:14;;;;;;;13.25;4.35;;;;;;;;;;4965666;28;20079;-71
2022/06/14 09:28:04;;;;;;;17.65;4.25;;;;;;;;;;4963205;28;20051;-69
2022/06/14 09:30:56;;;;;;;13.52;4.28;;;;;;;;;;4967841;28;20412;-72
2022/06/14 09:33:31;;;;;;;12.82;4.63;;;;;;;;;;4963670;28;20547;-71
2022/06/14 09:36:05;;;;;;;12.73;4.35;;;;;;;;;;4960982;28;20058;-69
2022/06/14 09:39:01;;;;;;;10.77;3.90;;;;;;;;;;4966364;28;20505;-68
2022/06/14 09:41:48;;;;;;;17.20;4.55;;;;;;;;;;4961827;28;20453;-69
2022/06/14 09:44:20;;;;;;;11.93;4.18;;;;;;;;;;4958666;28;20227;-71
2022/06/14 09:47:23;;;;;;;13.55;3.95;;;;;;;;;;4966885;28;20063;-71
2022/06/14 09:50:04;;;;;;;15.00;4.28;;;;;;;;;;4966814;28;20070;-69
2022/06/14 09:52:39;;;;;;;14.55;4.18;;;;;;;;;;4958359;28;20051;-71
2022/06/14 09:55:30;;;;;;;9.02;3.40;;;;;;;;;;4958214;28;20476;-71
2022/06/14 09:58:17;;;;;;;14.93;3.72;;;;;;;;;;4961081;28;20101;-70
2022/06/14 10:01:01;;;;;;;10.48;3.65;;;;;;;;;;4962506;28;20074;-71
2022/06/14 10:03:45;;;;;;;12.77;4.07;;;;;;;;;;4966542;28;20043;-68
2022/06/14 10:06:14;;;;;;;13.73;3.95;;;;;;;;;;4965976;28;20058;-71
2022/06/14 10:09:00;;;;;;;11.63;3.80;;;;;;;;;;4967562;28;20458;-69
2022/06/14 10:11:37;;;;;;;8.85;3.65;;;;;;;;;;4961506;28;20066;-70
2022/06/14 10:14:22;;;;;;;10.25;3.53;;;;;;;;;;4959233;28;20069;-71
2022/06/14 10:17:06;;;;;;;7.82;3.03;;;;;;;;;;4967948;28;20805;-69
2022/06/14 10:20:03;;;;;;;10.40;3.13;;;;;;;;;;4960270;28;20125;-68
2022/06/14 10:22:56;;;;;;;10.48;3.00;;;;;;;;;;4965937;28;20055;-71
2022/06/14 10:29:17;;;;;;;7.82;3.58;;;;;;;;;;4966813;28;20047;-71
2022/06/14 10:32:29;;;;;;;11.07;2.72;;;;;;;;;;4908248;29;20662;-70
2022/06/14 10:35:01;;;;;;;7.28;2.65;;;;;;;;;;4853008;29;20124;-71
2022/06/14 10:37:29;;;;;;;9.48;2.50;;;;;;;;;;4852914;29;20407;-71
2022/06/14 10:40:09;;;;;;;5.88;2.33;;;;;;;;;;4852633;29;20092;-70
2022/06/14 10:42:46;;;;;;;5.63;2.25;;;;;;;;;;4853411;29;20538;-74
2022/06/14 10:45:18;;;;;;;8.70;2.60;;;;;;;;;;4852973;29;20072;-71
2022/06/14 10:48:14;;;;;;;9.48;2.53;;;;;;;;;;4851788;29;20057;-71
2022/06/14 10:51:32;;;;;;;8.63;2.72;;;;;;;;;;4851192;29;20053;-73
2022/06/14 10:54:06;;;;;;;4.07;2.00;;;;;;;;;;4797309;29;20110;-72
2022/06/14 10:56:57;;;;;;;5.93;2.30;;;;;;;;;;4796502;29;20487;-71
2022/06/14 10:59:35;;;;;;;6.30;1.77;;;;;;;;;;4795961;29;20107;-70
2022/06/14 11:02:09;;;;;;;7.38;2.25;;;;;;;;;;4797274;29;20055;-68
2022/06/14 11:04:43;;;;;;;3.90;1.77;;;;;;;;;;4798438;29;20058;-71
2022/06/14 11:07:26;;;;;;;6.70;1.77;;;;;;;;;;4848789;29;20053;-71
2022/06/14 11:10:07;;;;;;;6.85;1.92;;;;;;;;;;4860179;29;20071;-72
2022/06/14 11:12:52;;;;;;;7.97;3.90;;;;;;;;;;4891239;29;20143;-71
2022/06/14 11:15:34;;;;;;;7.30;2.60;;;;;;;;;;4906999;29;20063;-69
2022/06/14 11:18:34;;;;;;;8.45;2.50;;;;;;;;;;4908598;29;20051;-69
2022/06/14 11:21:08;;;;;;;5.97;2.05;;;;;;;;;;4905525;29;20048;-71
2022/06/14 11:23:42;;;;;;;4.88;1.90;;;;;;;;;;4906521;29;20079;-71
2022/06/14 11:26:16;;;;;;;12.88;2.10;;;;;;;;;;4900584;29;20059;-70
2022/06/14 11:28:57;;;;;;;3.50;1.73;;;;;;;;;;4913731;28;20113;-69
2022/06/14 11:31:31;;;;;;;5.78;1.80;;;;;;;;;;4954480;28;20161;-69
2022/06/14 11:34:23;;;;;;;10.63;1.70;;;;;;;;;;4958638;28;20051;-73
2022/06/14 11:37:01;;;;;;;2.72;1.20;;;;;;;;;;4951922;28;20458;-72
2022/06/14 11:39:33;;;;;;;4.88;1.30;;;;;;;;;;4961635;28;20043;-71
2022/06/14 11:42:05;;;;;;;3.92;1.30;;;;;;;;;;4959875;28;20116;-71
2022/06/14 11:44:54;;;;;;;4.10;1.50;;;;;;;;;;4961000;28;20035;-74
2022/06/14 11:47:34;;;;;;;7.43;1.50;;;;;;;;;;4958674;28;20058;-69
2022/06/14 11:50:11;;;;;;;5.97;1.38;;;;;;;;;;4958250;28;20101;-71
2022/06/14 11:52:45;;;;;;;7.35;1.90;;;;;;;;;;4958837;28;20057;-71
2022/06/14 11:55:20;;;;;;;4.13;1.48;;;;;;;;;;4961823;28;20050;-71
2022/06/14 11:58:11;;;;;;;4.90;1.38;;;;;;;;;;4958604;28;20073;-70
2022/06/14 12:00:48;;;;;;;5.15;1.52;;;;;;;;;;4958855;28;20054;-69
2022/06/14 12:03:23;;;;;;;8.23;2.97;;;;;;;;;;4960742;28;20050;-70
2022/06/14 12:06:29;;;;;;;9.73;2.17;;;;;;;;;;4959913;28;20046;-70
2022/06/14 12:09:08;;;;;;;6.82;2.10;;;;;;;;;;4961262;28;20336;-70
2022/06/14 12:11:57;;;;;;;7.40;1.88;;;;;;;;;;4954113;28;20047;-72
2022/06/14 12:14:48;;;;;;;5.03;1.77;;;;;;;;;;4963484;28;20077;-70
2022/06/14 12:17:22;;;;;;;8.60;1.80;;;;;;;;;;4958068;28;20134;-70
2022/06/14 12:20:06;;;;;;;4.28;1.65;;;;;;;;;;4965218;28;20062;-72
2022/06/14 12:22:59;;;;;;;4.78;1.40;;;;;;;;;;4964354;28;20432;-72
2022/06/14 12:28:22;;;;;;;3.58;1.42;;;;;;;;;;4965326;28;20062;-71
2022/06/14 12:30:52;;;;;;;5.07;1.48;;;;;;;;;;4964721;28;20085;-70
2022/06/14 12:33:53;;;;;;;5.15;1.45;;;;;;;;;;4960814;28;20038;-70
2022/06/14 12:36:32;;;;;;;4.13;1.60;;;;;;;;;;4951756;28;20053;-71
2022/06/14 12:39:07;;;;;;;4.47;1.55;;;;;;;;;;4960232;28;20090;-74
2022/06/14 12:41:39;;;;;;;4.03;1.70;;;;;;;;;;4962547;28;20092;-72
2022/06/14 12:44:11;;;;;;;5.30;1.40;;;;;;;;;;4957691;28;20150;-71
2022/06/14 12:46:42;;;;;;;4.28;1.42;;;;;;;;;;4963996;28;20122;-70
2022/06/14 12:49:20;;;;;;;5.75;1.77;;;;;;;;;;4964161;28;20400;-73
2022/06/14 12:51:49;;;;;;;6.45;2.08;;;;;;;;;;4966130;28;20055;-73
2022/06/14 12:54:32;;;;;;;5.55;1.50;;;;;;;;;;4967277;28;20135;-70
2022/06/14 12:57:29;;;;;;;5.07;1.52;;;;;;;;;;4960764;28;20046;-70
2022/06/14 13:00:15;;;;;;;5.30;1.40;;;;;;;;;;4964925;28;20042;-70
2022/06/14 13:02:53;;;;;;;8.38;1.77;;;;;;;;;;4969756;28;20078;-71
2022/06/14 13:05:31;;;;;;;5.85;1.65;;;;;;;;;;4967205;28;20043;-72
2022/06/14 13:08:12;;;;;;;5.57;1.60;;;;;;;;;;4964743;28;20127;-71
2022/06/14 13:11:10;;;;;;;7.20;1.50;;;;;;;;;;4967300;28;20070;-71
2022/06/14 13:14:12;;;;;;;4.25;1.30;;;;;;;;;;4967345;28;20054;-69
2022/06/14 13:16:57;;;;;;;3.40;1.30;;;;;;;;;;4968961;28;20050;-72
2022/06/14 13:19:50;;;;;;;4.15;1.40;;;;;;;;;;4971952;28;20438;-71
2022/06/14 13:22:51;;;;;;;6.65;1.50;;;;;;;;;;4955751;28;20161;-71
2022/06/14 13:25:57;;;;;;;6.90;1.55;;;;;;;;;;4969311;28;20109;-70
2022/06/14 13:28:32;;;;;;;3.42;1.50;;;;;;;;;;4963495;28;20043;-70
2022/06/14 13:31:22;;;;;;;5.03;1.42;;;;;;;;;;4967823;28;20047;-70
2022/06/14 13:34:19;;;;;;;3.97;1.40;;;;;;;;;;4966778;28;20078;-69
2022/06/14 13:36:57;;;;;;;6.35;1.42;;;;;;;;;;4967168;28;20046;-70
2022/06/14 13:39:50;;;;;;;3.63;1.30;;;;;;;;;;4967470;28;20081;-73
2022/06/14 13:42:23;;;;;;;;;;;;;;;;;;4969008;28;20607;-69
2022/06/14 13:45:16;;;;;;;5.35;1.30;;;;;;;;;;4966720;28;19973;-72
2022/06/14 13:48:14;;;;;;;6.53;1.42;;;;;;;;;;4964973;28;20059;-71
2022/06/14 13:50:57;;;;;;;5.47;1.60;;;;;;;;;;4954484;28;20093;-70
2022/06/14 13:53:29;;;;;;;7.13;1.55;;;;;;;;;;4965951;28;20074;-69
2022/06/14 13:56:00;;;;;;;4.97;1.48;;;;;;;;;;4963383;28;20051;-70
2022/06/14 13:58:45;;;;;;;6.57;1.70;;;;;;;;;;4958025;28;20090;-69
2022/06/14 14:01:18;;;;;;;2.97;1.10;;;;;;;;;;4953362;28;20081;-71
2022/06/14 14:03:47;;;;;;;;;;;;;;;;;;4965638;28;20070;-71
2022/06/14 14:06:15;;;;;;;6.53;1.25;;;;;;;;;;4969147;28;19933;-72
2022/06/14 14:09:09;;;;;;;8.85;1.70;;;;;;;;;;4968109;28;20486;-71
2022/06/14 14:11:59;;;;;;;5.82;1.38;;;;;;;;;;4968219;28;20070;-70
2022/06/14 14:14:49;;;;;;;7.13;1.30;;;;;;;;;;4964944;28;20402;-70
2022/06/14 14:17:47;;;;;;;6.47;2.03;;;;;;;;;;4955598;28;20065;-72
2022/06/14 14:20:37;;;;;;;3.25;1.30;;;;;;;;;;4926918;29;20054;-70
2022/06/14 14:23:28;;;;;;;8.18;1.42;;;;;;;;;;4922054;29;20091;-70
2022/06/14 14:26:00;;;;;;;4.22;1.50;;;;;;;;;;4925964;29;20047;-71
2022/06/14 14:29:00;;;;;;;5.47;1.17;;;;;;;;;;4927874;29;20129;-72
2022/06/14 14:31:32;;;;;;;5.13;1.27;;;;;;;;;;4915944;29;20058;-70
2022/06/14 14:34:08;;;;;;;5.20;1.40;;;;;;;;;;4924294;29;20055;-71
2022/06/14 14:36:58;;;;;;;56.60;12.52;;;;;;;;;;4927886;29;20071;-70
2022/06/14 14:39:27;;;;;;;11.30;2.65;;;;;;;;;;4913120;29;20059;-71
2022/06/14 14:42:16;;;;;;;5.05;1.70;;;;;;;;;;4933291;29;20171;-74
2022/06/14 14:44:53;;;;;;;6.38;1.77;;;;;;;;;;4888793;29;20048;-72
2022/06/14 14:47:35;;;;;;;6.80;1.88;;;;;;;;;;4922028;29;20438;-70
2022/06/14 14:50:10;;;;;;;5.43;1.23;;;;;;;;;;4923752;29;20044;-72
2022/06/14 14:52:45;;;;;;;9.77;1.40;;;;;;;;;;4919600;29;20414;-73
2022/06/14 14:55:29;;;;;;;7.20;1.70;;;;;;;;;;4924948;29;20063;-71
2022/06/14 14:57:56;;;;;;;5.03;1.30;;;;;;;;;;4963048;28;20126;-70
2022/06/14 15:06:13;;;;;;;8.70;1.48;;;;;;;;;;4958054;28;20051;-71
2022/06/14 15:08:48;;;;;;;7.20;1.83;;;;;;;;;;4962586;28;20395;-71
2022/06/14 15:11:15;;;;;;;5.50;1.60;;;;;;;;;;4966939;28;20132;-70
2022/06/14 15:13:48;;;;;;;12.82;1.60;;;;;;;;;;4962186;28;20116;-75
2022/06/14 15:16:28;;;;;;;10.20;1.60;;;;;;;;;;4964834;28;20066;-71
2022/06/14 15:21:54;;;;;;;8.07;1.50;;;;;;;;;;4958512;28;20125;-73
2022/06/14 15:24:23;;;;;;;15.85;1.70;;;;;;;;;;4966979;28;20051;-72
2022/06/14 15:26:53;;;;;;;8.35;1.77;;;;;;;;;;4962543;28;20387;-71
2022/06/14 15:29:25;;;;;;;13.80;1.85;;;;;;;;;;4959367;28;20473;-70
2022/06/14 15:32:01;;;;;;;8.68;1.38;;;;;;;;;;4966429;28;20400;-75
2022/06/14 15:34:51;;;;;;;7.85;1.20;;;;;;;;;;4961966;28;20042;-74
2022/06/14 15:37:36;;;;;;;5.43;1.40;;;;;;;;;;4962337;28;20047;-73
2022/06/14 15:40:23;;;;;;;6.43;1.67;;;;;;;;;;4968124;28;20062;-70
2022/06/14 15:43:05;;;;;;;7.53;1.38;;;;;;;;;;4961515;28;20050;-72
2022/06/14 15:45:43;;;;;;;8.30;1.58;;;;;;;;;;4965886;28;20053;-77
2022/06/14 15:48:34;;;;;;;9.80;2.05;;;;;;;;;;4960787;28;20058;-78
2022/06/14 15:51:05;;;;;;;5.55;1.40;;;;;;;;;;4951207;28;20043;-73
2022/06/14 15:53:49;;;;;;;9.13;1.50;;;;;;;;;;4964619;28;20047;-76
2022/06/14 15:56:20;;;;;;;;;;;;;;;;;;4967287;28;20062;-74
2022/06/14 15:58:49;;;;;;;5.82;1.42;;;;;;;;;;4957141;28;20327;-76
2022/06/14 16:01:23;;;;;;;6.20;1.45;;;;;;;;;;4944904;28;20050;-76
2022/06/14 16:04:06;;;;;;;;;;;;;;;;;;4946733;28;20053;-73
2022/06/14 16:06:35;;;;;;;7.90;1.60;;;;;;;;;;4955139;28;19926;-76
2022/06/14 16:09:23;;;;;;;4.40;1.23;;;;;;;;;;4957059;28;20051;-72
2022/06/14 16:11:54;;;;;;;10.85;1.75;;;;;;;;;;4956128;28;20477;-73
2022/06/14 16:14:22;;;;;;;7.30;1.20;;;;;;;;;;4955777;28;20070;-73
2022/06/14 16:17:15;;;;;;;4.13;1.40;;;;;;;;;;4958084;28;20835;-76